createdAt,value
2023-02-03T00:02:46.763Z,43
2023-02-03T00:08:22.001Z,44
2023-02-03T00:14:04.533Z,28
2023-02-03T00:19:39.411Z,18
2023-02-03T00:25:14.528Z,30
2023-02-03T00:30:50.194Z,42
2023-02-03T00:36:24.842Z,58
2023-02-03T00:41:59.976Z,40
2023-02-03T00:47:36.550Z,48
2023-02-03T00:53:11.616Z,42
2023-02-03T00:58:46.511Z,10
2023-02-03T01:04:24.869Z,32
2023-02-03T01:10:03.817Z,28
2023-02-03T01:15:40.783Z,33
2023-02-03T01:21:36.753Z,20
2023-02-03T01:27:12.200Z,30
2023-02-03T01:32:53.664Z,32
2023-02-03T01:38:29.182Z,18
2023-02-03T01:44:04.644Z,22
2023-02-03T01:49:47.170Z,45
2023-02-03T01:55:22.226Z,32
2023-02-03T02:00:59.360Z,44
2023-02-03T02:06:38.205Z,22
2023-02-03T02:12:15.698Z,26
2023-02-03T02:17:50.772Z,30
2023-02-03T02:23:27.701Z,22
2023-02-03T02:29:16.308Z,26
2023-02-03T02:34:51.506Z,30
2023-02-03T02:40:37.270Z,20
2023-02-03T02:46:19.785Z,30
2023-02-03T02:52:03.132Z,0
2023-02-03T02:57:56.339Z,46
2023-02-03T03:03:41.810Z,42
2023-02-03T03:09:16.895Z,28
2023-02-03T03:14:55.058Z,49
2023-02-03T03:20:31.403Z,40
2023-02-03T03:26:06.306Z,6
2023-02-03T03:31:42.798Z,20
2023-02-03T03:37:19.827Z,34
2023-02-03T03:42:55.778Z,43
2023-02-03T03:48:46.535Z,14
2023-02-03T03:54:31.929Z,10
2023-02-03T04:00:12.391Z,14
2023-02-03T04:05:58.305Z,16
2023-02-03T04:11:33.667Z,16
2023-02-03T04:17:10.664Z,26
2023-02-03T04:22:46.066Z,10
2023-02-03T04:28:24.502Z,44
2023-02-03T04:34:02.044Z,4
2023-02-03T04:39:38.166Z,8
2023-02-03T04:45:14.609Z,20
2023-02-03T04:50:49.808Z,10
2023-02-03T04:56:24.494Z,10
2023-02-03T05:01:59.348Z,19
2023-02-03T05:07:46.344Z,4
2023-02-03T05:13:21.816Z,16
2023-02-03T05:19:25.047Z,6
2023-02-03T05:25:01.312Z,28
2023-02-03T05:31:01.038Z,24
2023-02-03T05:36:38.077Z,31
2023-02-03T05:42:13.005Z,8
2023-02-03T05:47:47.574Z,16
2023-02-03T05:53:22.550Z,10
2023-02-03T05:58:57.445Z,24
2023-02-03T06:04:34.166Z,8
2023-02-03T06:10:33.854Z,18
2023-02-03T06:16:09.052Z,14
2023-02-03T06:21:43.788Z,8
2023-02-03T06:27:23.468Z,14
2023-02-03T06:33:01.803Z,10
2023-02-03T06:38:37.982Z,8
2023-02-03T06:44:15.675Z,20
2023-02-03T06:49:50.513Z,16
2023-02-03T06:55:25.956Z,12
2023-02-03T07:01:02.080Z,20
2023-02-03T07:06:58.131Z,12
2023-02-03T07:12:38.601Z,23
2023-02-03T07:18:48.946Z,6
2023-02-03T07:24:25.077Z,24
2023-02-03T07:30:13.837Z,12
2023-02-03T07:35:49.922Z,10
2023-02-03T07:41:37.547Z,20
2023-02-03T07:47:19.462Z,8
2023-02-03T07:53:24.937Z,10
2023-02-03T07:59:00.293Z,4
2023-02-03T08:05:04.208Z,14
2023-02-03T08:10:46.933Z,20
2023-02-03T08:16:22.813Z,26
2023-02-03T08:21:58.548Z,16
2023-02-03T08:27:37.477Z,64
2023-02-03T08:33:13.064Z,40
2023-02-03T08:38:50.133Z,73
2023-02-03T08:44:48.764Z,65
2023-02-03T08:50:29.583Z,38
2023-02-03T08:56:07.201Z,42
2023-02-03T09:01:52.037Z,38
2023-02-03T09:07:42.527Z,40
2023-02-03T09:13:17.976Z,34
2023-02-03T09:18:53.480Z,32
2023-02-03T09:24:29.422Z,32
2023-02-03T09:30:04.716Z,38
2023-02-03T09:35:40.537Z,20
2023-02-03T09:41:17.114Z,28
2023-02-03T09:47:14.757Z,54
2023-02-03T09:52:48.394Z,32
2023-02-03T09:58:24.454Z,24
2023-02-03T10:04:01.148Z,22
2023-02-03T10:09:46.833Z,28
2023-02-03T10:15:25.911Z,40
2023-02-03T10:21:43.437Z,20
2023-02-03T10:27:26.438Z,34
2023-02-03T10:33:14.880Z,16
2023-02-03T10:38:56.197Z,16
2023-02-03T10:44:31.775Z,12
2023-02-03T10:50:16.676Z,18
2023-02-03T10:56:04.091Z,8
2023-02-03T11:01:47.163Z,12
2023-02-03T11:07:22.419Z,6
2023-02-03T11:13:18.562Z,14
2023-02-03T11:18:54.249Z,12
2023-02-03T11:24:30.407Z,0
2023-02-03T11:30:19.630Z,4
2023-02-03T11:36:16.906Z,10
2023-02-03T11:41:59.227Z,6
2023-02-03T11:48:02.891Z,9
2023-02-03T11:53:59.506Z,8
2023-02-03T11:59:41.684Z,12
2023-02-03T12:05:28.229Z,15
2023-02-03T12:11:04.471Z,2
2023-02-03T12:16:40.906Z,6
2023-02-03T12:22:25.566Z,16
2023-02-03T12:28:01.627Z,14
2023-02-03T12:33:37.781Z,4
2023-02-03T12:39:13.449Z,10
2023-02-03T12:44:49.244Z,10
2023-02-03T12:50:28.625Z,12
2023-02-03T12:56:05.167Z,10
2023-02-03T13:01:58.319Z,14
2023-02-03T13:07:53.194Z,4
2023-02-03T13:13:28.945Z,65
2023-02-03T13:19:05.504Z,435
2023-02-03T13:24:40.783Z,2149
2023-02-03T13:30:21.175Z,952
2023-02-03T13:35:56.374Z,17
2023-02-03T13:41:47.003Z,107
2023-02-03T13:47:22.330Z,1694
2023-02-03T13:53:06.603Z,219
2023-02-03T13:58:42.396Z,1738
2023-02-03T14:04:18.548Z,1576
2023-02-03T14:10:15.008Z,901
2023-02-03T14:16:12.324Z,44
2023-02-03T14:21:47.796Z,365
2023-02-03T14:27:23.298Z,478
2023-02-03T14:33:14.814Z,166
2023-02-03T14:38:59.926Z,1560
2023-02-03T14:44:45.445Z,2836
2023-02-03T14:50:21.188Z,2133
2023-02-03T14:55:56.802Z,183
2023-02-03T15:01:40.478Z,68
2023-02-03T15:07:17.046Z,444
2023-02-03T15:12:52.275Z,422
2023-02-03T15:18:27.782Z,896
2023-02-03T15:24:07.097Z,181
2023-02-03T15:29:43.311Z,94
2023-02-03T15:35:36.306Z,46
2023-02-03T15:41:11.545Z,18
2023-02-03T15:46:49.132Z,17
2023-02-03T15:52:25.162Z,6
2023-02-03T15:58:07.350Z,26
2023-02-03T16:03:43.085Z,54
2023-02-03T16:09:18.740Z,10
2023-02-03T16:15:01.331Z,8
2023-02-03T16:20:39.368Z,26
2023-02-03T16:26:15.049Z,6
2023-02-03T16:31:54.314Z,4
2023-02-03T16:37:29.654Z,12
2023-02-03T16:43:06.469Z,8
2023-02-03T16:48:46.521Z,14
2023-02-03T16:54:27.744Z,6
2023-02-03T17:00:11.996Z,14
2023-02-03T17:06:00.503Z,4
2023-02-03T17:11:35.982Z,10
2023-02-03T17:17:11.227Z,6
2023-02-03T17:22:46.372Z,8
2023-02-03T17:28:21.932Z,10
2023-02-03T17:33:58.367Z,20
2023-02-03T17:54:25.908Z,14
2023-02-03T18:00:00.908Z,12
2023-02-03T18:05:35.995Z,12
2023-02-03T18:11:13.184Z,10
2023-02-03T18:16:54.736Z,32
2023-02-03T18:22:30.589Z,16
2023-02-03T18:28:06.073Z,24
2023-02-03T18:33:41.582Z,30
2023-02-03T18:39:17.304Z,34
2023-02-03T18:44:52.405Z,26
2023-02-03T18:50:30.285Z,34
2023-02-03T18:56:08.810Z,46
2023-02-03T19:01:48.973Z,24
2023-02-03T19:07:28.589Z,30
2023-02-03T19:13:13.071Z,88
2023-02-03T19:19:02.265Z,20
2023-02-03T19:24:41.111Z,32
2023-02-03T19:30:19.166Z,14
2023-02-03T19:36:00.792Z,45
2023-02-03T19:41:37.816Z,44
2023-02-03T19:47:34.934Z,35
2023-02-03T19:53:09.070Z,51
2023-02-03T19:58:44.316Z,14
2023-02-03T20:04:22.531Z,6
2023-02-03T20:10:00.375Z,28
2023-02-03T20:15:46.130Z,55
2023-02-03T20:21:25.974Z,34
2023-02-03T20:27:01.394Z,26
2023-02-03T20:32:40.284Z,41
2023-02-03T20:38:28.655Z,51
2023-02-03T20:44:19.768Z,90
2023-02-03T20:50:42.167Z,44
2023-02-03T20:56:29.768Z,40
2023-02-03T21:02:12.515Z,14
2023-02-03T21:07:51.862Z,14
2023-02-03T21:13:28.497Z,18
2023-02-03T21:19:04.510Z,24
2023-02-03T21:24:48.482Z,26
2023-02-03T21:30:23.649Z,42
2023-02-03T21:36:06.232Z,55
2023-02-03T21:41:50.501Z,14
2023-02-03T21:47:47.575Z,69
2023-02-03T21:53:20.372Z,26
2023-02-03T21:59:42.807Z,36
2023-02-03T22:05:25.782Z,57
2023-02-03T22:11:04.765Z,30
2023-02-03T22:16:42.429Z,54
2023-02-03T22:22:18.865Z,93
2023-02-03T22:27:55.562Z,110
2023-02-03T22:33:33.717Z,82
2023-02-03T22:39:17.639Z,50
2023-02-03T22:45:13.612Z,46
2023-02-03T22:50:51.532Z,32
2023-02-03T22:56:27.113Z,26
2023-02-03T23:02:02.494Z,22
2023-02-03T23:07:37.523Z,24
2023-02-03T23:13:12.456Z,24
2023-02-03T23:18:47.823Z,34
2023-02-03T23:24:22.641Z,20
2023-02-03T23:30:06.372Z,24
2023-02-03T23:35:49.060Z,28
2023-02-03T23:41:25.408Z,42
2023-02-03T23:47:25.099Z,59
2023-02-03T23:52:59.309Z,68
2023-02-03T23:58:34.299Z,40
